Adams, NY

1:29 AM EST on December 28, 2014 (GMT -0500)
Deer Run Dairy | Change Station
CLOSE
Current Station
Personal Weather Station
Location: Adams, NY
Elevation: 420 ft
Nearby Weather Stations

Elev 420 ft 43.85 °N, 76.14 °W | Updated 4 minutes ago

Rain
Rain
47.1 °F
Feels Like 44 °F
N
7.0
Wind Variable Wind from SSW
Gusts 8.0 mph

Today
High -- | Low -- °F
--% Chance of Precip.
Yesterday
High -- | Low -- °F
Precip. -- in
7:37 AM 4:33 PM
Waxing Crescent, 44% visible
Pressure 29.82 in
Visibility 10.0 miles
Clouds Overcast 4200 ft
Windchill 44 °F
Dew Point 41 °F
Humidity 80%
Rainfall 0.00 in
Snow Depth Not available.
UV 0 out of 12
Pollen .10 out of 12
Air Quality Not available.
Flu Activity Not available.
METAR KART 280556Z AUTO 23015G21KT 10SM -RA OVC042 12/02 A2982 RMK AO2 RAB51 SLP096 P0000 60000 T01170022 10128 20111 56020 $

More Conditions Fewer Conditions

Pressure 29.82 in
Visibility 10.0 miles
Clouds Overcast 4200 ft
Windchill 44 °F
Dew Point 41 °F
Humidity 80%
Rainfall 0.00 in
Snow Depth Not available.
UV 0 out of 12
Pollen .10 out of 12
Air Quality Not available.
Flu Activity Not available.
METAR KART 280556Z AUTO 23015G21KT 10SM -RA OVC042 12/02 A2982 RMK AO2 RAB51 SLP096 P0000 60000 T01170022 10128 20111 56020 $

More Conditions Fewer Conditions

10-Day Weather Forecast

Almanac

Astronomy

Dec. 28, 2014 Rise Set
Actual Time
Civil Twilight
Nautical Twilight
Astronomical Twilight
Moon
Length of Visible Light
Length of Day
Tomorrow will be .
, % of the Moon is Illuminated

Today's Extremes

State Highs State Lows

Community

WunderPhotos

Upload Photos

1,781,207 photos uploaded!

WunderBlogs® & News

Nearby

Air Quality

  Air Quality AQ Index Pollutant
Not available.

Snow Depth

Station Depth Elevation

Earthquake Activity

City Distance Mag. Time & Date
Minimum magnitude displayed is 2.5.

Coastal Water Temperatures

Place Temperature

Nearby Weather Stations